TCMO2: Little River Nr Tecumseh, OK

Data processed at Sat Jan 12 2019 23:32


All information presented herein is the property of the government of the United States of America and may be revised or deleted at any time without prior notice.
Dissemination of this information without the expressed written consent of the Public Affairs Office, Tulsa District U.S. Army Corps of Engineers is strictly prohibited.
These data are gathered electronically and, as presented, have not undergone any form of quality control. These data are not guaranteed to be valid or correct.
Go to home page.
Go to station list.
Go to home page.

Upstream stations:

Downstream station:
Previous Day
Next Day
Current Day
    
SHEF ID:       TCMO2     Little River near Tecumseh, OK
STATION TYPE:  

                STAGE  RIV-FLOW  BAT-LOAD
                   ft       cfs      volt
              Ccp-Rev   Ccp-Rev   Ccp-Rev
(US/Central)
01/12 00:00      6.83       387     12.49
01/12 01:00      6.95       421     12.49
01/12 02:00      7.06       454     12.49
01/12 03:00      7.07       457     12.49
01/12 04:00      7.04       448     12.49
01/12 05:00      6.98       430     12.49
01/12 06:00      6.91       410     12.49
01/12 07:00      6.85       392     12.49
01/12 08:00      6.78       373     12.49
01/12 09:00      6.67       342     12.49
01/12 10:00      6.59       321     12.49
01/12 11:00      6.51       300     12.57
01/12 12:00      6.43       280     12.65
01/12 13:00      6.34       257     12.81
01/12 14:00      6.26       238     12.81
01/12 15:00      6.19       222     12.73
01/12 16:00      6.11       205     12.65
01/12 17:00      6.04       190     12.57
01/12 18:00      5.97       177     12.49
01/12 19:00      5.91       165     12.49
01/12 20:00      5.85       155     12.41
01/12 21:00      5.80       146     12.41
01/12 22:00      5.75       138     12.41
01/12 23:00      ----      ----      ----